sensor_id;sensor_type;location;lat;lon;timestamp;P1;durP1;ratioP1;P2;durP2;ratioP2
52940;SDS011;62001;53.366;6.636;2023-02-08T00:00:16;51.03;;;25.93;;
52940;SDS011;62001;53.366;6.636;2023-02-08T00:02:42;43.13;;;25.10;;
52940;SDS011;62001;53.366;6.636;2023-02-08T00:05:08;42.30;;;23.77;;
52940;SDS011;62001;53.366;6.636;2023-02-08T00:07:34;46.07;;;25.30;;
52940;SDS011;62001;53.366;6.636;2023-02-08T00:09:59;46.03;;;26.30;;
52940;SDS011;62001;53.366;6.636;2023-02-08T00:12:29;54.93;;;29.43;;
52940;SDS011;62001;53.366;6.636;2023-02-08T00:14:54;56.40;;;28.43;;
52940;SDS011;62001;53.366;6.636;2023-02-08T00:17:20;51.93;;;28.07;;
52940;SDS011;62001;53.366;6.636;2023-02-08T00:19:46;52.80;;;28.67;;
52940;SDS011;62001;53.366;6.636;2023-02-08T00:22:12;54.93;;;29.37;;
52940;SDS011;62001;53.366;6.636;2023-02-08T00:24:38;49.60;;;26.10;;
52940;SDS011;62001;53.366;6.636;2023-02-08T00:27:04;54.07;;;29.03;;
52940;SDS011;62001;53.366;6.636;2023-02-08T00:29:29;56.10;;;31.37;;
52940;SDS011;62001;53.366;6.636;2023-02-08T00:31:55;57.27;;;31.73;;
52940;SDS011;62001;53.366;6.636;2023-02-08T00:34:21;63.30;;;33.00;;
52940;SDS011;62001;53.366;6.636;2023-02-08T00:36:47;59.73;;;33.33;;
52940;SDS011;62001;53.366;6.636;2023-02-08T00:39:13;66.00;;;33.13;;
52940;SDS011;62001;53.366;6.636;2023-02-08T00:41:39;65.97;;;33.77;;
52940;SDS011;62001;53.366;6.636;2023-02-08T00:44:04;59.23;;;31.97;;
52940;SDS011;62001;53.366;6.636;2023-02-08T00:46:30;58.90;;;32.30;;
52940;SDS011;62001;53.366;6.636;2023-02-08T00:48:56;57.97;;;31.73;;
52940;SDS011;62001;53.366;6.636;2023-02-08T00:51:22;53.90;;;29.60;;
52940;SDS011;62001;53.366;6.636;2023-02-08T00:53:48;53.10;;;30.43;;
52940;SDS011;62001;53.366;6.636;2023-02-08T00:56:14;54.57;;;31.53;;
52940;SDS011;62001;53.366;6.636;2023-02-08T00:58:40;54.97;;;31.97;;
52940;SDS011;62001;53.366;6.636;2023-02-08T01:01:07;52.43;;;30.80;;
52940;SDS011;62001;53.366;6.636;2023-02-08T01:03:34;57.17;;;32.13;;
52940;SDS011;62001;53.366;6.636;2023-02-08T01:06:02;55.57;;;31.33;;
52940;SDS011;62001;53.366;6.636;2023-02-08T01:08:30;52.07;;;29.63;;
52940;SDS011;62001;53.366;6.636;2023-02-08T01:11:06;53.73;;;30.47;;
52940;SDS011;62001;53.366;6.636;2023-02-08T01:13:40;49.77;;;29.37;;
52940;SDS011;62001;53.366;6.636;2023-02-08T01:16:14;49.97;;;29.03;;
52940;SDS011;62001;53.366;6.636;2023-02-08T01:18:42;49.27;;;28.47;;
52940;SDS011;62001;53.366;6.636;2023-02-08T01:21:11;48.20;;;29.93;;
52940;SDS011;62001;53.366;6.636;2023-02-08T01:23:39;48.03;;;29.30;;
52940;SDS011;62001;53.366;6.636;2023-02-08T01:26:05;55.67;;;29.77;;
52940;SDS011;62001;53.366;6.636;2023-02-08T01:28:33;48.97;;;28.20;;
52940;SDS011;62001;53.366;6.636;2023-02-08T01:30:59;50.57;;;29.87;;
52940;SDS011;62001;53.366;6.636;2023-02-08T01:33:28;50.35;;;29.30;;
52940;SDS011;62001;53.366;6.636;2023-02-08T01:35:54;50.13;;;30.03;;
52940;SDS011;62001;53.366;6.636;2023-02-08T01:38:20;50.23;;;30.90;;
52940;SDS011;62001;53.366;6.636;2023-02-08T01:40:46;51.20;;;29.97;;
52940;SDS011;62001;53.366;6.636;2023-02-08T01:43:15;53.40;;;31.40;;
52940;SDS011;62001;53.366;6.636;2023-02-08T01:45:47;55.67;;;30.90;;
52940;SDS011;62001;53.366;6.636;2023-02-08T01:48:14;49.80;;;29.70;;
52940;SDS011;62001;53.366;6.636;2023-02-08T01:50:58;49.83;;;29.20;;
52940;SDS011;62001;53.366;6.636;2023-02-08T01:53:32;49.67;;;28.47;;
52940;SDS011;62001;53.366;6.636;2023-02-08T01:56:00;50.97;;;28.40;;
52940;SDS011;62001;53.366;6.636;2023-02-08T01:58:29;49.65;;;29.05;;
52940;SDS011;62001;53.366;6.636;2023-02-08T02:00:59;49.40;;;29.67;;
52940;SDS011;62001;53.366;6.636;2023-02-08T02:03:26;51.87;;;30.77;;
52940;SDS011;62001;53.366;6.636;2023-02-08T02:06:03;50.10;;;28.87;;
52940;SDS011;62001;53.366;6.636;2023-02-08T02:08:32;34.03;;;21.73;;
52940;SDS011;62001;53.366;6.636;2023-02-08T02:10:58;52.20;;;29.17;;
52940;SDS011;62001;53.366;6.636;2023-02-08T02:13:25;51.63;;;28.73;;
52940;SDS011;62001;53.366;6.636;2023-02-08T02:15:51;47.00;;;27.87;;
52940;SDS011;62001;53.366;6.636;2023-02-08T02:18:25;49.50;;;29.53;;
52940;SDS011;62001;53.366;6.636;2023-02-08T02:21:06;47.30;;;28.83;;
52940;SDS011;62001;53.366;6.636;2023-02-08T02:29:31;45.70;;;28.37;;
52940;SDS011;62001;53.366;6.636;2023-02-08T02:43:44;53.50;;;31.03;;
52940;SDS011;62001;53.366;6.636;2023-02-08T02:49:12;47.87;;;28.50;;
52940;SDS011;62001;53.366;6.636;2023-02-08T02:52:01;48.07;;;29.37;;
52940;SDS011;62001;53.366;6.636;2023-02-08T02:57:14;51.63;;;30.90;;
52940;SDS011;62001;53.366;6.636;2023-02-08T03:00:01;51.23;;;31.23;;
52940;SDS011;62001;53.366;6.636;2023-02-08T03:02:31;46.83;;;30.27;;
52940;SDS011;62001;53.366;6.636;2023-02-08T03:04:58;52.73;;;31.07;;
52940;SDS011;62001;53.366;6.636;2023-02-08T03:07:28;54.00;;;30.60;;
52940;SDS011;62001;53.366;6.636;2023-02-08T03:13:15;48.03;;;28.20;;
52940;SDS011;62001;53.366;6.636;2023-02-08T03:15:58;50.35;;;30.02;;
52940;SDS011;62001;53.366;6.636;2023-02-08T03:18:54;51.50;;;29.80;;
52940;SDS011;62001;53.366;6.636;2023-02-08T03:21:37;51.47;;;28.07;;
52940;SDS011;62001;53.366;6.636;2023-02-08T03:24:13;47.37;;;28.30;;
52940;SDS011;62001;53.366;6.636;2023-02-08T03:29:30;43.07;;;27.13;;
52940;SDS011;62001;53.366;6.636;2023-02-08T03:31:59;45.33;;;28.53;;
52940;SDS011;62001;53.366;6.636;2023-02-08T03:34:33;42.20;;;25.30;;
52940;SDS011;62001;53.366;6.636;2023-02-08T03:37:08;39.77;;;25.40;;
52940;SDS011;62001;53.366;6.636;2023-02-08T03:39:40;43.97;;;26.87;;
52940;SDS011;62001;53.366;6.636;2023-02-08T03:42:09;44.00;;;27.07;;
52940;SDS011;62001;53.366;6.636;2023-02-08T03:44:56;44.87;;;27.33;;
52940;SDS011;62001;53.366;6.636;2023-02-08T03:47:34;42.63;;;26.87;;
52940;SDS011;62001;53.366;6.636;2023-02-08T03:50:05;36.95;;;20.90;;
52940;SDS011;62001;53.366;6.636;2023-02-08T03:52:33;35.33;;;21.25;;
52940;SDS011;62001;53.366;6.636;2023-02-08T03:55:02;49.00;;;28.57;;
52940;SDS011;62001;53.366;6.636;2023-02-08T03:57:35;44.90;;;28.48;;
52940;SDS011;62001;53.366;6.636;2023-02-08T04:00:08;43.90;;;27.50;;
52940;SDS011;62001;53.366;6.636;2023-02-08T04:02:44;46.63;;;27.57;;
52940;SDS011;62001;53.366;6.636;2023-02-08T04:05:17;43.50;;;25.70;;
52940;SDS011;62001;53.366;6.636;2023-02-08T04:07:44;44.60;;;26.23;;
52940;SDS011;62001;53.366;6.636;2023-02-08T04:10:10;47.83;;;29.03;;
52940;SDS011;62001;53.366;6.636;2023-02-08T04:12:36;46.77;;;28.27;;
52940;SDS011;62001;53.366;6.636;2023-02-08T04:15:02;46.17;;;28.10;;
52940;SDS011;62001;53.366;6.636;2023-02-08T04:17:28;52.87;;;28.70;;
52940;SDS011;62001;53.366;6.636;2023-02-08T04:19:53;47.73;;;28.63;;
52940;SDS011;62001;53.366;6.636;2023-02-08T04:22:19;47.33;;;29.00;;
52940;SDS011;62001;53.366;6.636;2023-02-08T04:24:45;45.80;;;27.73;;
52940;SDS011;62001;53.366;6.636;2023-02-08T04:27:11;48.30;;;28.43;;
52940;SDS011;62001;53.366;6.636;2023-02-08T04:29:37;47.80;;;28.33;;
52940;SDS011;62001;53.366;6.636;2023-02-08T04:32:03;46.80;;;28.63;;
52940;SDS011;62001;53.366;6.636;2023-02-08T04:34:29;44.13;;;27.33;;
52940;SDS011;62001;53.366;6.636;2023-02-08T04:36:55;49.97;;;28.10;;
52940;SDS011;62001;53.366;6.636;2023-02-08T04:39:21;42.50;;;26.90;;
52940;SDS011;62001;53.366;6.636;2023-02-08T04:41:46;47.07;;;27.03;;
52940;SDS011;62001;53.366;6.636;2023-02-08T04:44:12;47.53;;;29.90;;
52940;SDS011;62001;53.366;6.636;2023-02-08T04:46:38;46.60;;;28.30;;
52940;SDS011;62001;53.366;6.636;2023-02-08T04:49:04;46.77;;;27.67;;
52940;SDS011;62001;53.366;6.636;2023-02-08T04:51:31;46.40;;;27.83;;
52940;SDS011;62001;53.366;6.636;2023-02-08T04:53:56;45.43;;;27.50;;
52940;SDS011;62001;53.366;6.636;2023-02-08T04:56:22;44.13;;;27.00;;
52940;SDS011;62001;53.366;6.636;2023-02-08T04:58:48;46.37;;;27.87;;
52940;SDS011;62001;53.366;6.636;2023-02-08T05:01:14;46.63;;;28.53;;
52940;SDS011;62001;53.366;6.636;2023-02-08T05:03:40;43.97;;;27.30;;
52940;SDS011;62001;53.366;6.636;2023-02-08T05:06:06;48.87;;;27.50;;
52940;SDS011;62001;53.366;6.636;2023-02-08T05:08:32;48.10;;;26.97;;
52940;SDS011;62001;53.366;6.636;2023-02-08T05:10:58;47.57;;;28.87;;
52940;SDS011;62001;53.366;6.636;2023-02-08T05:13:24;46.97;;;29.07;;
52940;SDS011;62001;53.366;6.636;2023-02-08T05:15:49;56.57;;;30.53;;
52940;SDS011;62001;53.366;6.636;2023-02-08T05:18:15;45.00;;;27.77;;
52940;SDS011;62001;53.366;6.636;2023-02-08T05:20:41;44.57;;;27.80;;
52940;SDS011;62001;53.366;6.636;2023-02-08T05:23:07;47.53;;;29.27;;
52940;SDS011;62001;53.366;6.636;2023-02-08T05:25:33;56.03;;;30.20;;
52940;SDS011;62001;53.366;6.636;2023-02-08T05:27:59;52.80;;;30.20;;
52940;SDS011;62001;53.366;6.636;2023-02-08T05:30:24;51.67;;;30.30;;
52940;SDS011;62001;53.366;6.636;2023-02-08T05:32:50;53.47;;;31.33;;
52940;SDS011;62001;53.366;6.636;2023-02-08T05:35:16;52.90;;;30.13;;
52940;SDS011;62001;53.366;6.636;2023-02-08T05:37:42;50.07;;;28.90;;
52940;SDS011;62001;53.366;6.636;2023-02-08T05:40:08;47.17;;;28.13;;
52940;SDS011;62001;53.366;6.636;2023-02-08T05:42:37;47.47;;;29.27;;
52940;SDS011;62001;53.366;6.636;2023-02-08T05:45:03;54.30;;;30.80;;
52940;SDS011;62001;53.366;6.636;2023-02-08T05:47:29;54.47;;;30.87;;
52940;SDS011;62001;53.366;6.636;2023-02-08T05:49:55;54.73;;;30.93;;
52940;SDS011;62001;53.366;6.636;2023-02-08T05:52:21;52.47;;;30.30;;
52940;SDS011;62001;53.366;6.636;2023-02-08T05:54:47;53.50;;;32.20;;
52940;SDS011;62001;53.366;6.636;2023-02-08T05:57:13;49.83;;;31.07;;
52940;SDS011;62001;53.366;6.636;2023-02-08T05:59:39;55.27;;;31.77;;
52940;SDS011;62001;53.366;6.636;2023-02-08T06:02:04;55.97;;;31.83;;
52940;SDS011;62001;53.366;6.636;2023-02-08T06:04:30;56.97;;;31.43;;
52940;SDS011;62001;53.366;6.636;2023-02-08T06:06:56;53.00;;;31.90;;
52940;SDS011;62001;53.366;6.636;2023-02-08T06:09:22;56.73;;;31.10;;
52940;SDS011;62001;53.366;6.636;2023-02-08T06:11:48;53.23;;;31.07;;
52940;SDS011;62001;53.366;6.636;2023-02-08T06:14:14;56.70;;;32.83;;
52940;SDS011;62001;53.366;6.636;2023-02-08T06:16:39;56.37;;;32.70;;
52940;SDS011;62001;53.366;6.636;2023-02-08T06:19:05;61.00;;;33.70;;
52940;SDS011;62001;53.366;6.636;2023-02-08T06:21:31;56.57;;;31.80;;
52940;SDS011;62001;53.366;6.636;2023-02-08T06:23:57;55.47;;;31.13;;
52940;SDS011;62001;53.366;6.636;2023-02-08T06:26:23;55.23;;;31.23;;
52940;SDS011;62001;53.366;6.636;2023-02-08T06:28:49;52.50;;;30.10;;
52940;SDS011;62001;53.366;6.636;2023-02-08T06:31:14;54.70;;;32.50;;
52940;SDS011;62001;53.366;6.636;2023-02-08T06:33:40;57.33;;;31.47;;
52940;SDS011;62001;53.366;6.636;2023-02-08T06:36:06;54.03;;;32.20;;
52940;SDS011;62001;53.366;6.636;2023-02-08T06:38:32;51.87;;;31.37;;
52940;SDS011;62001;53.366;6.636;2023-02-08T06:40:58;56.30;;;32.03;;
52940;SDS011;62001;53.366;6.636;2023-02-08T06:43:24;53.07;;;31.30;;
52940;SDS011;62001;53.366;6.636;2023-02-08T06:45:50;57.57;;;32.07;;
52940;SDS011;62001;53.366;6.636;2023-02-08T06:48:15;54.70;;;33.60;;
52940;SDS011;62001;53.366;6.636;2023-02-08T06:50:41;57.77;;;33.07;;
52940;SDS011;62001;53.366;6.636;2023-02-08T06:53:07;56.40;;;32.83;;
52940;SDS011;62001;53.366;6.636;2023-02-08T06:55:33;60.03;;;33.70;;
52940;SDS011;62001;53.366;6.636;2023-02-08T06:57:59;56.67;;;32.87;;
52940;SDS011;62001;53.366;6.636;2023-02-08T07:00:25;57.43;;;33.60;;
52940;SDS011;62001;53.366;6.636;2023-02-08T07:02:51;57.17;;;33.03;;
52940;SDS011;62001;53.366;6.636;2023-02-08T07:05:17;59.33;;;33.43;;
52940;SDS011;62001;53.366;6.636;2023-02-08T07:07:42;58.37;;;33.70;;
52940;SDS011;62001;53.366;6.636;2023-02-08T07:10:09;61.03;;;34.70;;
52940;SDS011;62001;53.366;6.636;2023-02-08T07:12:35;57.53;;;34.13;;
52940;SDS011;62001;53.366;6.636;2023-02-08T07:15:02;57.60;;;34.63;;
52940;SDS011;62001;53.366;6.636;2023-02-08T07:17:28;59.40;;;33.67;;
52940;SDS011;62001;53.366;6.636;2023-02-08T07:19:54;57.80;;;33.97;;
52940;SDS011;62001;53.366;6.636;2023-02-08T07:22:20;57.53;;;33.67;;
52940;SDS011;62001;53.366;6.636;2023-02-08T07:24:46;60.53;;;33.93;;
52940;SDS011;62001;53.366;6.636;2023-02-08T07:27:12;57.43;;;33.60;;
52940;SDS011;62001;53.366;6.636;2023-02-08T07:29:38;56.40;;;32.77;;
52940;SDS011;62001;53.366;6.636;2023-02-08T07:32:05;59.27;;;33.50;;
52940;SDS011;62001;53.366;6.636;2023-02-08T07:34:33;55.20;;;32.87;;
52940;SDS011;62001;53.366;6.636;2023-02-08T07:37:01;56.93;;;32.93;;
52940;SDS011;62001;53.366;6.636;2023-02-08T07:39:26;54.10;;;32.13;;
52940;SDS011;62001;53.366;6.636;2023-02-08T07:41:52;60.20;;;32.97;;
52940;SDS011;62001;53.366;6.636;2023-02-08T07:44:18;54.00;;;32.33;;
52940;SDS011;62001;53.366;6.636;2023-02-08T07:46:44;54.90;;;33.30;;
52940;SDS011;62001;53.366;6.636;2023-02-08T07:49:10;53.33;;;30.70;;
52940;SDS011;62001;53.366;6.636;2023-02-08T07:51:36;53.63;;;32.47;;
52940;SDS011;62001;53.366;6.636;2023-02-08T07:54:02;55.60;;;32.40;;
52940;SDS011;62001;53.366;6.636;2023-02-08T07:56:28;53.43;;;33.43;;
52940;SDS011;62001;53.366;6.636;2023-02-08T07:58:54;53.53;;;31.37;;
52940;SDS011;62001;53.366;6.636;2023-02-08T08:01:20;50.40;;;31.67;;
52940;SDS011;62001;53.366;6.636;2023-02-08T08:03:46;49.57;;;29.97;;
52940;SDS011;62001;53.366;6.636;2023-02-08T08:06:12;45.83;;;30.00;;
52940;SDS011;62001;53.366;6.636;2023-02-08T08:08:37;44.13;;;27.37;;
52940;SDS011;62001;53.366;6.636;2023-02-08T08:11:04;39.20;;;26.33;;
52940;SDS011;62001;53.366;6.636;2023-02-08T08:13:31;42.03;;;26.20;;
52940;SDS011;62001;53.366;6.636;2023-02-08T08:16:01;37.87;;;25.53;;
52940;SDS011;62001;53.366;6.636;2023-02-08T08:18:26;39.50;;;25.13;;
52940;SDS011;62001;53.366;6.636;2023-02-08T08:20:53;45.13;;;26.10;;
52940;SDS011;62001;53.366;6.636;2023-02-08T08:23:19;38.87;;;24.03;;
52940;SDS011;62001;53.366;6.636;2023-02-08T08:25:45;39.00;;;26.07;;
52940;SDS011;62001;53.366;6.636;2023-02-08T08:28:10;38.87;;;25.33;;
52940;SDS011;62001;53.366;6.636;2023-02-08T08:30:36;38.63;;;25.10;;
52940;SDS011;62001;53.366;6.636;2023-02-08T08:33:02;45.47;;;25.93;;
52940;SDS011;62001;53.366;6.636;2023-02-08T08:35:28;41.07;;;25.53;;
52940;SDS011;62001;53.366;6.636;2023-02-08T08:37:54;43.10;;;26.50;;
52940;SDS011;62001;53.366;6.636;2023-02-08T08:40:20;42.37;;;26.90;;
52940;SDS011;62001;53.366;6.636;2023-02-08T08:42:45;39.50;;;25.93;;
52940;SDS011;62001;53.366;6.636;2023-02-08T08:45:11;40.73;;;27.07;;
52940;SDS011;62001;53.366;6.636;2023-02-08T08:47:37;40.67;;;26.37;;
52940;SDS011;62001;53.366;6.636;2023-02-08T08:50:03;43.17;;;27.47;;
52940;SDS011;62001;53.366;6.636;2023-02-08T08:52:29;42.47;;;27.23;;
52940;SDS011;62001;53.366;6.636;2023-02-08T08:54:55;39.90;;;26.23;;
52940;SDS011;62001;53.366;6.636;2023-02-08T08:57:21;41.90;;;27.37;;
52940;SDS011;62001;53.366;6.636;2023-02-08T08:59:47;38.23;;;26.70;;
52940;SDS011;62001;53.366;6.636;2023-02-08T09:02:12;38.40;;;26.27;;
52940;SDS011;62001;53.366;6.636;2023-02-08T09:04:39;38.43;;;25.50;;
52940;SDS011;62001;53.366;6.636;2023-02-08T09:07:05;39.87;;;25.80;;
52940;SDS011;62001;53.366;6.636;2023-02-08T09:09:32;35.97;;;24.80;;
52940;SDS011;62001;53.366;6.636;2023-02-08T09:11:58;34.83;;;23.67;;
52940;SDS011;62001;53.366;6.636;2023-02-08T09:14:25;32.43;;;22.70;;
52940;SDS011;62001;53.366;6.636;2023-02-08T09:16:51;31.97;;;22.77;;
52940;SDS011;62001;53.366;6.636;2023-02-08T09:19:17;34.53;;;23.70;;
52940;SDS011;62001;53.366;6.636;2023-02-08T09:21:43;35.13;;;24.23;;
52940;SDS011;62001;53.366;6.636;2023-02-08T09:24:09;31.70;;;22.57;;
52940;SDS011;62001;53.366;6.636;2023-02-08T09:26:35;34.00;;;22.77;;
52940;SDS011;62001;53.366;6.636;2023-02-08T09:29:00;31.93;;;23.37;;
52940;SDS011;62001;53.366;6.636;2023-02-08T09:31:28;33.20;;;23.30;;
52940;SDS011;62001;53.366;6.636;2023-02-08T09:33:57;33.43;;;23.40;;
52940;SDS011;62001;53.366;6.636;2023-02-08T09:36:26;33.93;;;23.20;;
52940;SDS011;62001;53.366;6.636;2023-02-08T09:38:54;31.92;;;22.25;;
52940;SDS011;62001;53.366;6.636;2023-02-08T09:43:56;34.33;;;23.07;;
52940;SDS011;62001;53.366;6.636;2023-02-08T09:46:56;32.20;;;22.50;;
52940;SDS011;62001;53.366;6.636;2023-02-08T09:49:28;34.03;;;23.13;;
52940;SDS011;62001;53.366;6.636;2023-02-08T09:54:26;34.40;;;23.30;;
52940;SDS011;62001;53.366;6.636;2023-02-08T09:56:59;34.20;;;23.70;;
52940;SDS011;62001;53.366;6.636;2023-02-08T09:59:28;34.90;;;23.07;;
52940;SDS011;62001;53.366;6.636;2023-02-08T10:02:01;34.93;;;23.80;;
52940;SDS011;62001;53.366;6.636;2023-02-08T10:07:15;32.10;;;22.63;;
52940;SDS011;62001;53.366;6.636;2023-02-08T10:09:41;35.33;;;23.33;;
52940;SDS011;62001;53.366;6.636;2023-02-08T10:23:51;29.20;;;21.73;;
52940;SDS011;62001;53.366;6.636;2023-02-08T10:26:45;28.80;;;20.63;;
52940;SDS011;62001;53.366;6.636;2023-02-08T10:37:32;30.75;;;20.95;;
52940;SDS011;62001;53.366;6.636;2023-02-08T10:42:39;29.67;;;20.83;;
52940;SDS011;62001;53.366;6.636;2023-02-08T10:51:29;29.97;;;19.63;;
52940;SDS011;62001;53.366;6.636;2023-02-08T10:53:55;26.87;;;19.57;;
52940;SDS011;62001;53.366;6.636;2023-02-08T10:58:53;26.13;;;18.73;;
52940;SDS011;62001;53.366;6.636;2023-02-08T11:01:23;26.03;;;18.27;;
52940;SDS011;62001;53.366;6.636;2023-02-08T11:04:03;24.83;;;18.33;;
52940;SDS011;62001;53.366;6.636;2023-02-08T11:06:31;28.20;;;17.73;;
52940;SDS011;62001;53.366;6.636;2023-02-08T11:08:57;22.97;;;16.23;;
52940;SDS011;62001;53.366;6.636;2023-02-08T11:11:24;25.60;;;16.93;;
52940;SDS011;62001;53.366;6.636;2023-02-08T11:14:03;23.37;;;16.10;;
52940;SDS011;62001;53.366;6.636;2023-02-08T11:16:32;24.80;;;16.03;;
52940;SDS011;62001;53.366;6.636;2023-02-08T11:18:59;24.07;;;15.53;;
52940;SDS011;62001;53.366;6.636;2023-02-08T11:21:29;22.10;;;15.20;;
52940;SDS011;62001;53.366;6.636;2023-02-08T11:23:59;24.33;;;16.77;;
52940;SDS011;62001;53.366;6.636;2023-02-08T11:31:38;21.37;;;14.53;;
52940;SDS011;62001;53.366;6.636;2023-02-08T11:34:06;18.30;;;13.73;;
52940;SDS011;62001;53.366;6.636;2023-02-08T11:36:35;20.10;;;14.07;;
52940;SDS011;62001;53.366;6.636;2023-02-08T11:39:19;18.93;;;13.57;;
52940;SDS011;62001;53.366;6.636;2023-02-08T11:41:48;20.80;;;13.80;;
52940;SDS011;62001;53.366;6.636;2023-02-08T11:44:21;20.73;;;14.05;;
52940;SDS011;62001;53.366;6.636;2023-02-08T11:49:39;20.38;;;14.80;;
52940;SDS011;62001;53.366;6.636;2023-02-08T11:52:53;18.63;;;13.53;;
52940;SDS011;62001;53.366;6.636;2023-02-08T12:00:23;19.90;;;13.43;;
52940;SDS011;62001;53.366;6.636;2023-02-08T12:02:53;18.57;;;13.43;;
52940;SDS011;62001;53.366;6.636;2023-02-08T12:05:37;22.43;;;13.23;;
52940;SDS011;62001;53.366;6.636;2023-02-08T12:11:16;18.07;;;12.90;;
52940;SDS011;62001;53.366;6.636;2023-02-08T12:13:57;20.70;;;12.67;;
52940;SDS011;62001;53.366;6.636;2023-02-08T12:23:04;17.43;;;12.50;;
52940;SDS011;62001;53.366;6.636;2023-02-08T12:25:52;18.00;;;12.50;;
52940;SDS011;62001;53.366;6.636;2023-02-08T12:28:26;18.50;;;12.80;;
52940;SDS011;62001;53.366;6.636;2023-02-08T12:31:06;18.20;;;12.80;;
52940;SDS011;62001;53.366;6.636;2023-02-08T12:45:19;17.95;;;11.63;;
52940;SDS011;62001;53.366;6.636;2023-02-08T12:47:56;18.10;;;12.53;;
52940;SDS011;62001;53.366;6.636;2023-02-08T12:50:39;15.47;;;11.23;;
52940;SDS011;62001;53.366;6.636;2023-02-08T12:55:50;13.83;;;9.93;;
52940;SDS011;62001;53.366;6.636;2023-02-08T12:58:28;13.70;;;9.70;;
52940;SDS011;62001;53.366;6.636;2023-02-08T13:01:37;14.87;;;9.93;;
52940;SDS011;62001;53.366;6.636;2023-02-08T13:06:43;12.43;;;9.27;;
52940;SDS011;62001;53.366;6.636;2023-02-08T13:12:05;15.77;;;9.67;;
52940;SDS011;62001;53.366;6.636;2023-02-08T13:17:28;13.50;;;9.03;;
52940;SDS011;62001;53.366;6.636;2023-02-08T13:22:59;14.47;;;8.07;;
52940;SDS011;62001;53.366;6.636;2023-02-08T13:25:30;13.87;;;8.90;;
52940;SDS011;62001;53.366;6.636;2023-02-08T13:28:01;14.67;;;8.33;;
52940;SDS011;62001;53.366;6.636;2023-02-08T13:30:28;11.87;;;7.83;;
52940;SDS011;62001;53.366;6.636;2023-02-08T13:32:55;11.37;;;7.83;;
52940;SDS011;62001;53.366;6.636;2023-02-08T13:35:26;12.43;;;8.00;;
52940;SDS011;62001;53.366;6.636;2023-02-08T13:40:29;12.63;;;8.60;;
52940;SDS011;62001;53.366;6.636;2023-02-08T13:43:04;16.77;;;8.95;;
52940;SDS011;62001;53.366;6.636;2023-02-08T13:45:39;12.40;;;9.20;;
52940;SDS011;62001;53.366;6.636;2023-02-08T13:48:10;14.17;;;9.40;;
52940;SDS011;62001;53.366;6.636;2023-02-08T13:50:42;13.63;;;9.57;;
52940;SDS011;62001;53.366;6.636;2023-02-08T13:53:17;15.27;;;9.90;;
52940;SDS011;62001;53.366;6.636;2023-02-08T13:56:10;15.80;;;10.13;;
52940;SDS011;62001;53.366;6.636;2023-02-08T14:01:21;12.77;;;8.67;;
52940;SDS011;62001;53.366;6.636;2023-02-08T14:06:36;12.90;;;8.90;;
52940;SDS011;62001;53.366;6.636;2023-02-08T14:19:56;14.20;;;8.00;;
52940;SDS011;62001;53.366;6.636;2023-02-08T14:22:26;14.60;;;8.30;;
52940;SDS011;62001;53.366;6.636;2023-02-08T14:25:01;13.90;;;8.03;;
52940;SDS011;62001;53.366;6.636;2023-02-08T14:27:43;10.37;;;7.43;;
52940;SDS011;62001;53.366;6.636;2023-02-08T14:32:51;10.13;;;7.17;;
52940;SDS011;62001;53.366;6.636;2023-02-08T14:35:32;9.40;;;6.67;;
52940;SDS011;62001;53.366;6.636;2023-02-08T14:45:48;9.60;;;6.90;;
52940;SDS011;62001;53.366;6.636;2023-02-08T14:48:26;8.47;;;6.33;;
52940;SDS011;62001;53.366;6.636;2023-02-08T14:50:59;9.53;;;6.57;;
52940;SDS011;62001;53.366;6.636;2023-02-08T14:53:32;10.33;;;6.50;;
52940;SDS011;62001;53.366;6.636;2023-02-08T14:56:28;9.53;;;6.50;;
52940;SDS011;62001;53.366;6.636;2023-02-08T14:58:57;9.63;;;6.60;;
52940;SDS011;62001;53.366;6.636;2023-02-08T15:01:43;9.60;;;6.45;;
52940;SDS011;62001;53.366;6.636;2023-02-08T15:04:10;7.80;;;5.90;;
52940;SDS011;62001;53.366;6.636;2023-02-08T15:09:17;8.90;;;6.13;;
52940;SDS011;62001;53.366;6.636;2023-02-08T15:11:51;9.00;;;5.80;;
52940;SDS011;62001;53.366;6.636;2023-02-08T15:14:23;8.67;;;6.30;;
52940;SDS011;62001;53.366;6.636;2023-02-08T15:16:50;10.50;;;6.57;;
52940;SDS011;62001;53.366;6.636;2023-02-08T15:19:32;7.03;;;5.53;;
52940;SDS011;62001;53.366;6.636;2023-02-08T15:25:01;8.20;;;5.80;;
52940;SDS011;62001;53.366;6.636;2023-02-08T15:27:50;8.33;;;5.57;;
52940;SDS011;62001;53.366;6.636;2023-02-08T15:30:36;6.83;;;5.20;;
52940;SDS011;62001;53.366;6.636;2023-02-08T15:33:07;8.33;;;5.10;;
52940;SDS011;62001;53.366;6.636;2023-02-08T15:35:38;8.37;;;5.07;;
52940;SDS011;62001;53.366;6.636;2023-02-08T15:38:09;8.60;;;5.33;;
52940;SDS011;62001;53.366;6.636;2023-02-08T15:40:40;7.20;;;5.37;;
52940;SDS011;62001;53.366;6.636;2023-02-08T15:45:32;9.20;;;6.23;;
52940;SDS011;62001;53.366;6.636;2023-02-08T15:47:59;9.97;;;6.37;;
52940;SDS011;62001;53.366;6.636;2023-02-08T15:50:26;11.40;;;6.73;;
52940;SDS011;62001;53.366;6.636;2023-02-08T15:53:00;12.30;;;7.10;;
52940;SDS011;62001;53.366;6.636;2023-02-08T15:55:37;11.03;;;7.03;;
52940;SDS011;62001;53.366;6.636;2023-02-08T16:01:00;10.45;;;6.82;;
52940;SDS011;62001;53.366;6.636;2023-02-08T16:03:27;11.70;;;6.70;;
52940;SDS011;62001;53.366;6.636;2023-02-08T16:05:56;10.87;;;7.53;;
52940;SDS011;62001;53.366;6.636;2023-02-08T16:08:31;9.23;;;6.32;;
52940;SDS011;62001;53.366;6.636;2023-02-08T16:11:00;9.53;;;6.50;;
52940;SDS011;62001;53.366;6.636;2023-02-08T16:13:37;9.00;;;6.27;;
52940;SDS011;62001;53.366;6.636;2023-02-08T16:21:49;11.20;;;6.50;;
52940;SDS011;62001;53.366;6.636;2023-02-08T16:29:28;9.73;;;6.70;;
52940;SDS011;62001;53.366;6.636;2023-02-08T16:32:00;9.40;;;6.85;;
52940;SDS011;62001;53.366;6.636;2023-02-08T16:34:43;11.57;;;6.87;;
52940;SDS011;62001;53.366;6.636;2023-02-08T16:37:42;11.20;;;7.57;;
52940;SDS011;62001;53.366;6.636;2023-02-08T16:40:02;8.63;;;6.57;;
52940;SDS011;62001;53.366;6.636;2023-02-08T16:47:38;10.53;;;7.60;;
52940;SDS011;62001;53.366;6.636;2023-02-08T16:50:11;12.23;;;7.10;;
52940;SDS011;62001;53.366;6.636;2023-02-08T16:52:42;11.70;;;8.17;;
52940;SDS011;62001;53.366;6.636;2023-02-08T16:55:16;13.47;;;8.40;;
52940;SDS011;62001;53.366;6.636;2023-02-08T16:57:45;10.93;;;7.60;;
52940;SDS011;62001;53.366;6.636;2023-02-08T17:00:15;11.38;;;8.07;;
52940;SDS011;62001;53.366;6.636;2023-02-08T17:02:47;13.03;;;8.70;;
52940;SDS011;62001;53.366;6.636;2023-02-08T17:05:13;13.33;;;8.20;;
52940;SDS011;62001;53.366;6.636;2023-02-08T17:07:40;12.50;;;7.97;;
52940;SDS011;62001;53.366;6.636;2023-02-08T17:10:06;14.57;;;8.40;;
52940;SDS011;62001;53.366;6.636;2023-02-08T17:12:37;14.60;;;8.13;;
52940;SDS011;62001;53.366;6.636;2023-02-08T17:15:03;15.23;;;8.47;;
52940;SDS011;62001;53.366;6.636;2023-02-08T17:17:29;13.60;;;8.30;;
52940;SDS011;62001;53.366;6.636;2023-02-08T17:19:56;13.13;;;9.00;;
52940;SDS011;62001;53.366;6.636;2023-02-08T17:22:22;13.47;;;8.30;;
52940;SDS011;62001;53.366;6.636;2023-02-08T17:24:48;15.77;;;8.63;;
52940;SDS011;62001;53.366;6.636;2023-02-08T17:27:14;12.47;;;8.53;;
52940;SDS011;62001;53.366;6.636;2023-02-08T17:29:40;12.07;;;8.73;;
52940;SDS011;62001;53.366;6.636;2023-02-08T17:32:06;13.13;;;8.90;;